KLLQ

Monticello Municipal / Ellis Field Airport

Monticello, Arkansas, USA
METAR KLLQ 230253Z AUTO 23003KT 10SM CLR 24/21 A3001 RMK AO2 LTG DSNT N AND NW SLP160 T02440211 51012
Observed Flight Rules
May-23 @ 02:53 UTC (27 minutes ago) Visual Flight Rules
Wind Visibility Clouds
230° at 3 knots 10 miles
  • Clear skies
Temperatures Readings
Current 24°C / 75°F
Dewpoint 21°C / 70°F
Humidity 83%
Altimeter 30.01" Hg
Pressure 1016 hPa
Elevation 83
METAR KLLQ 230253Z AUTO 23003KT 10SM CLR 24/21 A3001 RMK AO2 LTG DSNT N AND NW SLP160 T02440211 51012
Observed Flight Rules
May-23 @ 02:53 UTC
(27 minutes ago)
VFR
Wind Visibility
230° at 3 knots 10 miles
Clouds
  • Clear skies
Temperature Dewpoint
24°C / 75°F 21°C / 70°F
Humidity Altimeter Pressure
83% 30.01" Hg 1016 hPa